Time;durP1;ratioP1;P1;durP2;ratioP2;P2;SDS_P1;SDS_P2;PMS_P1;PMS_P2;Temp;Humidity;BMP_temperature;BMP_pressure;BME280_temperature;BME280_humidity;BME280_pressure;Samples;Min_cycle;Max_cycle;Signal;HPM_P1;HPM_P2
2022/05/10 00:00:55;;;;;;;8.45;5.55;;;;;;;;;;4960043;28;20121;-88
2022/05/10 00:03:24;;;;;;;6.72;5.43;;;;;;;;;;4960317;28;20141;-88
2022/05/10 00:05:51;;;;;;;5.78;5.18;;;;;;;;;;4959961;28;20567;-89
2022/05/10 00:08:19;;;;;;;8.65;5.38;;;;;;;;;;4959914;28;20084;-88
2022/05/10 00:10:46;;;;;;;9.10;5.30;;;;;;;;;;4960064;28;20081;-88
2022/05/10 00:13:14;;;;;;;6.13;5.53;;;;;;;;;;4959989;28;20141;-88
2022/05/10 00:15:42;;;;;;;9.77;5.60;;;;;;;;;;4959674;28;20053;-88
2022/05/10 00:18:12;;;;;;;11.38;5.53;;;;;;;;;;4959812;28;20051;-88
2022/05/10 00:20:40;;;;;;;8.60;5.85;;;;;;;;;;4958705;28;20470;-88
2022/05/10 00:23:08;;;;;;;6.30;5.38;;;;;;;;;;4959334;28;20074;-88
2022/05/10 00:25:35;;;;;;;9.52;5.88;;;;;;;;;;4959028;28;20105;-88
2022/05/10 00:28:02;;;;;;;8.55;5.38;;;;;;;;;;4959455;28;20498;-88
2022/05/10 00:30:29;;;;;;;7.88;5.47;;;;;;;;;;4959545;28;20081;-88
2022/05/10 00:32:56;;;;;;;10.43;6.25;;;;;;;;;;4959487;28;20502;-89
2022/05/10 00:35:26;;;;;;;8.95;5.60;;;;;;;;;;4959234;28;20057;-88
2022/05/10 00:37:54;;;;;;;8.40;5.68;;;;;;;;;;4976430;28;20082;-88
2022/05/10 00:40:24;;;;;;;9.93;5.85;;;;;;;;;;4959418;28;20058;-88
2022/05/10 00:42:53;;;;;;;6.65;5.80;;;;;;;;;;4959200;28;20590;-90
2022/05/10 00:45:24;;;;;;;10.23;5.88;;;;;;;;;;4959478;28;20050;-89
2022/05/10 00:48:10;;;;;;;9.90;6.03;;;;;;;;;;4958287;28;20051;-88
2022/05/10 00:50:49;;;;;;;6.82;6.20;;;;;;;;;;4958908;28;20066;-88
2022/05/10 00:53:27;;;;;;;8.57;5.63;;;;;;;;;;4959140;28;20050;-89
2022/05/10 00:56:00;;;;;;;8.15;5.63;;;;;;;;;;4959145;28;20105;-88
2022/05/10 00:58:39;;;;;;;6.88;6.22;;;;;;;;;;4958662;28;20075;-89
2022/05/10 01:01:07;;;;;;;9.60;6.68;;;;;;;;;;4958968;28;20137;-88
2022/05/10 01:03:53;;;;;;;6.07;5.50;;;;;;;;;;4959107;28;20065;-87
2022/05/10 01:06:26;;;;;;;7.18;6.25;;;;;;;;;;4975768;28;20075;-89
2022/05/10 01:08:58;;;;;;;7.15;6.10;;;;;;;;;;4958784;28;20138;-89
2022/05/10 01:11:27;;;;;;;8.23;5.93;;;;;;;;;;4959027;28;20081;-89
2022/05/10 01:13:58;;;;;;;11.80;5.93;;;;;;;;;;4958700;28;20138;-89
2022/05/10 01:16:25;;;;;;;8.68;6.43;;;;;;;;;;4959053;28;20054;-88
2022/05/10 01:18:53;;;;;;;9.00;6.65;;;;;;;;;;4958398;28;20137;-88
2022/05/10 01:21:29;;;;;;;7.28;6.40;;;;;;;;;;4962448;28;20591;-88
2022/05/10 01:24:03;;;;;;;9.27;6.45;;;;;;;;;;4978770;28;20065;-88
2022/05/10 01:26:33;;;;;;;9.13;6.35;;;;;;;;;;4958782;28;20047;-89
2022/05/10 01:29:03;;;;;;;7.47;6.65;;;;;;;;;;4958587;28;20583;-88
2022/05/10 01:31:33;;;;;;;8.40;6.22;;;;;;;;;;4958520;28;20050;-88
2022/05/10 01:34:04;;;;;;;9.30;6.25;;;;;;;;;;4958642;28;20083;-88
2022/05/10 01:36:58;;;;;;;13.82;6.57;;;;;;;;;;4958429;28;20051;-88
2022/05/10 01:39:36;;;;;;;11.02;6.15;;;;;;;;;;4955466;28;20133;-89
2022/05/10 01:42:18;;;;;;;13.23;7.40;;;;;;;;;;4958385;28;20058;-89
2022/05/10 01:44:51;;;;;;;10.63;7.03;;;;;;;;;;4958114;28;20141;-89
2022/05/10 01:47:21;;;;;;;11.57;6.90;;;;;;;;;;4958428;28;20126;-88
2022/05/10 01:49:58;;;;;;;11.05;6.70;;;;;;;;;;4957885;28;20065;-89
2022/05/10 01:52:33;;;;;;;14.18;6.93;;;;;;;;;;4958175;28;20129;-89
2022/05/10 01:55:13;;;;;;;6.85;6.13;;;;;;;;;;4958282;28;20060;-89
2022/05/10 01:57:40;;;;;;;9.68;6.53;;;;;;;;;;4957541;28;20142;-89
2022/05/10 02:00:13;;;;;;;8.55;6.00;;;;;;;;;;4957688;28;20482;-88
2022/05/10 02:02:44;;;;;;;9.98;6.47;;;;;;;;;;4957375;28;20137;-88
2022/05/10 02:05:12;;;;;;;7.53;6.57;;;;;;;;;;4958147;28;20062;-88
2022/05/10 02:07:41;;;;;;;9.50;6.60;;;;;;;;;;4958063;28;20138;-88
2022/05/10 02:10:15;;;;;;;8.48;6.30;;;;;;;;;;4957894;28;20150;-89
2022/05/10 02:12:48;;;;;;;8.32;6.22;;;;;;;;;;4958024;28;20050;-89
2022/05/10 02:15:19;;;;;;;8.35;6.55;;;;;;;;;;4957909;28;20527;-89
2022/05/10 02:17:51;;;;;;;8.45;6.22;;;;;;;;;;4957687;28;20137;-88
2022/05/10 02:20:18;;;;;;;10.25;6.32;;;;;;;;;;4957601;28;20058;-89
2022/05/10 02:22:50;;;;;;;12.75;7.28;;;;;;;;;;4957870;28;20138;-89
2022/05/10 02:25:20;;;;;;;11.27;7.38;;;;;;;;;;4958003;28;20543;-89
2022/05/10 02:27:55;;;;;;;11.32;7.38;;;;;;;;;;4957377;28;20075;-88
2022/05/10 02:30:24;;;;;;;10.82;7.55;;;;;;;;;;4957751;28;20057;-89
2022/05/10 02:33:06;;;;;;;10.90;7.15;;;;;;;;;;4957806;28;20398;-89
2022/05/10 02:35:40;;;;;;;12.75;7.13;;;;;;;;;;4957919;28;20085;-89
2022/05/10 02:38:08;;;;;;;15.25;7.57;;;;;;;;;;4959721;28;20074;-88
2022/05/10 02:40:40;;;;;;;8.77;7.78;;;;;;;;;;4957203;28;20230;-88
2022/05/10 02:43:09;;;;;;;10.25;7.13;;;;;;;;;;4958135;28;20077;-89
2022/05/10 02:45:37;;;;;;;10.40;7.22;;;;;;;;;;4961221;28;20134;-89
2022/05/10 02:48:05;;;;;;;11.77;8.35;;;;;;;;;;4978051;28;20467;-88
2022/05/10 02:50:33;;;;;;;13.27;7.78;;;;;;;;;;4957283;28;20047;-88
2022/05/10 02:53:00;;;;;;;13.20;8.20;;;;;;;;;;4957792;29;20149;-89
2022/05/10 02:55:46;;;;;;;17.85;9.57;;;;;;;;;;4957711;29;20134;-88
2022/05/10 02:58:17;;;;;;;11.80;8.43;;;;;;;;;;4957844;29;20086;-88
2022/05/10 03:00:44;;;;;;;14.65;8.45;;;;;;;;;;4957571;28;20058;-89
2022/05/10 03:03:14;;;;;;;20.17;9.02;;;;;;;;;;4957552;28;20078;-87
2022/05/10 03:05:41;;;;;;;11.23;9.02;;;;;;;;;;4957547;29;20522;-88
2022/05/10 03:08:08;;;;;;;15.65;8.77;;;;;;;;;;4957739;28;20510;-89
2022/05/10 03:10:36;;;;;;;12.18;8.77;;;;;;;;;;4957862;29;20142;-90
2022/05/10 03:13:03;;;;;;;13.85;8.10;;;;;;;;;;4957851;29;20139;-90
2022/05/10 03:15:30;;;;;;;16.17;8.73;;;;;;;;;;4957479;28;20079;-88
2022/05/10 03:17:58;;;;;;;13.18;9.48;;;;;;;;;;4957311;28;20058;-89
2022/05/10 03:20:25;;;;;;;11.23;7.93;;;;;;;;;;4957432;29;20143;-90
2022/05/10 03:22:52;;;;;;;10.85;8.15;;;;;;;;;;4957437;29;20130;-89
2022/05/10 03:25:19;;;;;;;13.15;8.80;;;;;;;;;;4957198;29;20142;-89
2022/05/10 03:27:48;;;;;;;15.07;8.70;;;;;;;;;;4957311;28;20138;-88
2022/05/10 03:30:16;;;;;;;12.32;8.43;;;;;;;;;;4957263;28;20073;-88
2022/05/10 03:32:44;;;;;;;14.23;9.45;;;;;;;;;;4957455;29;20141;-88
2022/05/10 03:35:12;;;;;;;11.85;9.20;;;;;;;;;;4957338;28;20047;-89
2022/05/10 03:37:39;;;;;;;16.05;9.25;;;;;;;;;;4963626;28;20129;-89
2022/05/10 03:40:06;;;;;;;12.40;9.48;;;;;;;;;;4962114;29;20134;-88
2022/05/10 03:42:33;;;;;;;16.98;9.38;;;;;;;;;;4957132;28;20134;-89
2022/05/10 03:45:01;;;;;;;15.38;9.43;;;;;;;;;;4956432;29;20141;-89
2022/05/10 03:47:30;;;;;;;18.52;8.95;;;;;;;;;;4957279;29;20071;-88
2022/05/10 03:49:58;;;;;;;12.82;9.13;;;;;;;;;;4956665;28;20067;-90
2022/05/10 03:52:25;;;;;;;14.40;9.60;;;;;;;;;;4956865;28;20134;-89
2022/05/10 03:54:52;;;;;;;11.32;9.60;;;;;;;;;;4955782;28;20146;-90
2022/05/10 03:57:20;;;;;;;13.27;9.82;;;;;;;;;;4956245;29;20089;-89
2022/05/10 03:59:47;;;;;;;13.65;9.90;;;;;;;;;;4956761;28;20059;-89
2022/05/10 04:02:16;;;;;;;16.15;10.70;;;;;;;;;;4956462;29;20058;-89
2022/05/10 04:04:43;;;;;;;15.68;10.73;;;;;;;;;;4956811;28;20085;-89
2022/05/10 04:07:10;;;;;;;13.55;10.15;;;;;;;;;;4957086;28;20499;-89
2022/05/10 04:09:38;;;;;;;14.15;10.20;;;;;;;;;;4956464;28;20055;-90
2022/05/10 04:12:05;;;;;;;11.60;9.65;;;;;;;;;;4956203;28;20047;-90
2022/05/10 04:14:33;;;;;;;20.50;11.65;;;;;;;;;;4957486;29;20089;-89
2022/05/10 04:17:00;;;;;;;15.10;10.23;;;;;;;;;;4956707;28;20059;-89
2022/05/10 04:19:27;;;;;;;17.50;11.00;;;;;;;;;;4956272;29;20526;-90
2022/05/10 04:21:54;;;;;;;14.25;11.60;;;;;;;;;;4956450;28;20242;-88
2022/05/10 04:24:22;;;;;;;15.10;11.90;;;;;;;;;;4956171;28;20135;-89
2022/05/10 04:26:50;;;;;;;17.42;11.82;;;;;;;;;;4956138;28;20473;-88
2022/05/10 04:29:17;;;;;;;17.73;10.38;;;;;;;;;;4956433;28;20131;-89
2022/05/10 04:31:44;;;;;;;16.55;11.43;;;;;;;;;;4956262;29;20078;-89
2022/05/10 04:34:12;;;;;;;15.65;11.88;;;;;;;;;;4955951;29;20079;-89
2022/05/10 04:36:39;;;;;;;14.77;11.73;;;;;;;;;;4955905;28;20134;-88
2022/05/10 04:39:06;;;;;;;16.77;11.80;;;;;;;;;;4955850;28;20130;-89
2022/05/10 04:41:35;;;;;;;17.85;12.50;;;;;;;;;;4955888;29;20142;-88
2022/05/10 04:44:04;;;;;;;16.40;11.18;;;;;;;;;;4955936;28;20047;-89
2022/05/10 04:46:31;;;;;;;15.63;12.07;;;;;;;;;;4956072;28;20079;-88
2022/05/10 04:48:59;;;;;;;17.50;12.57;;;;;;;;;;4956058;28;20051;-89
2022/05/10 04:51:26;;;;;;;15.55;11.65;;;;;;;;;;4955698;28;20142;-89
2022/05/10 04:53:54;;;;;;;16.17;12.27;;;;;;;;;;4955829;28;20067;-89
2022/05/10 04:56:21;;;;;;;16.33;12.50;;;;;;;;;;4955742;28;20142;-89
2022/05/10 04:58:48;;;;;;;19.48;15.00;;;;;;;;;;4955717;28;20047;-90
2022/05/10 05:01:16;;;;;;;20.33;16.63;;;;;;;;;;4955695;28;20073;-89
2022/05/10 05:03:45;;;;;;;17.13;12.60;;;;;;;;;;4955756;29;20051;-89
2022/05/10 05:06:12;;;;;;;15.07;9.95;;;;;;;;;;4955270;28;20055;-89
2022/05/10 05:08:40;;;;;;;12.27;7.30;;;;;;;;;;4955446;29;20441;-88
2022/05/10 05:11:07;;;;;;;7.72;5.72;;;;;;;;;;4956499;28;20055;-89
2022/05/10 05:13:34;;;;;;;7.55;5.20;;;;;;;;;;4955118;29;20154;-89
2022/05/10 05:16:02;;;;;;;7.40;4.10;;;;;;;;;;4955015;28;20500;-90
2022/05/10 05:18:29;;;;;;;6.80;4.60;;;;;;;;;;4955372;28;20051;-89
2022/05/10 05:20:57;;;;;;;7.55;4.13;;;;;;;;;;4954786;29;20572;-88
2022/05/10 05:23:24;;;;;;;9.35;4.35;;;;;;;;;;4955028;28;20166;-88
2022/05/10 05:25:53;;;;;;;6.35;3.50;;;;;;;;;;4954830;29;20145;-88
2022/05/10 05:28:20;;;;;;;5.30;3.65;;;;;;;;;;4955369;29;20469;-90
2022/05/10 05:30:47;;;;;;;3.85;3.17;;;;;;;;;;4954818;28;20085;-88
2022/05/10 05:33:15;;;;;;;7.03;3.20;;;;;;;;;;4954510;29;20047;-88
2022/05/10 05:35:42;;;;;;;3.08;2.88;;;;;;;;;;4954610;29;20051;-89
2022/05/10 05:38:10;;;;;;;6.90;3.17;;;;;;;;;;4954508;28;20147;-87
2022/05/10 05:40:37;;;;;;;3.53;3.20;;;;;;;;;;4955440;28;20137;-89
2022/05/10 05:43:05;;;;;;;3.33;3.03;;;;;;;;;;4954482;29;20055;-88
2022/05/10 05:45:32;;;;;;;8.60;4.68;;;;;;;;;;4954043;28;20514;-87
2022/05/10 05:47:59;;;;;;;12.55;5.72;;;;;;;;;;4954288;29;20051;-89
2022/05/10 05:50:27;;;;;;;13.35;5.03;;;;;;;;;;4954485;29;20138;-89
2022/05/10 05:52:56;;;;;;;14.93;4.90;;;;;;;;;;4955177;29;20059;-89
2022/05/10 05:55:24;;;;;;;10.23;4.70;;;;;;;;;;4962059;29;20051;-89
2022/05/10 05:57:51;;;;;;;8.48;4.00;;;;;;;;;;4955076;29;20078;-88
2022/05/10 06:00:20;;;;;;;4.88;3.30;;;;;;;;;;4953534;28;20069;-89
2022/05/10 06:02:47;;;;;;;5.93;3.45;;;;;;;;;;4954520;28;20055;-88
2022/05/10 06:05:15;;;;;;;10.07;4.45;;;;;;;;;;4954639;28;20051;-89
2022/05/10 06:07:42;;;;;;;13.93;4.57;;;;;;;;;;4954512;28;20058;-89
2022/05/10 06:10:11;;;;;;;7.30;3.40;;;;;;;;;;4953579;29;20093;-89
2022/05/10 06:12:39;;;;;;;8.85;3.47;;;;;;;;;;4953782;29;20138;-89
2022/05/10 06:15:08;;;;;;;15.90;4.30;;;;;;;;;;4954298;29;20055;-90
2022/05/10 06:17:36;;;;;;;15.75;4.47;;;;;;;;;;4953625;28;20059;-89
2022/05/10 06:20:06;;;;;;;5.50;3.45;;;;;;;;;;4953857;29;20110;-90
2022/05/10 06:22:34;;;;;;;7.55;3.17;;;;;;;;;;4954509;29;20595;-90
2022/05/10 06:25:01;;;;;;;8.52;3.10;;;;;;;;;;4954070;28;20109;-89
2022/05/10 06:27:29;;;;;;;4.55;3.03;;;;;;;;;;4954065;29;20055;-89
2022/05/10 06:29:56;;;;;;;4.25;2.70;;;;;;;;;;4954280;28;20317;-90
2022/05/10 06:32:25;;;;;;;3.95;2.85;;;;;;;;;;4954338;28;20142;-90
2022/05/10 06:34:53;;;;;;;10.57;4.22;;;;;;;;;;4954304;29;20134;-89
2022/05/10 06:40:07;;;;;;;9.55;3.30;;;;;;;;;;4955062;29;20057;-89
2022/05/10 06:42:35;;;;;;;10.32;3.70;;;;;;;;;;4954042;29;20082;-89
2022/05/10 06:45:02;;;;;;;9.93;3.40;;;;;;;;;;4954250;29;20105;-91
2022/05/10 06:47:30;;;;;;;5.57;3.30;;;;;;;;;;4953872;29;20480;-89
2022/05/10 06:49:57;;;;;;;9.13;3.40;;;;;;;;;;4953755;28;20059;-88
2022/05/10 06:52:24;;;;;;;8.98;3.10;;;;;;;;;;4954246;29;20150;-88
2022/05/10 06:54:51;;;;;;;7.85;3.20;;;;;;;;;;4954175;28;20051;-89
2022/05/10 06:57:18;;;;;;;7.22;3.05;;;;;;;;;;4954372;28;20047;-89
2022/05/10 06:59:45;;;;;;;7.03;2.85;;;;;;;;;;4954154;29;20051;-88
2022/05/10 07:02:12;;;;;;;6.47;3.08;;;;;;;;;;4954193;28;20460;-89
2022/05/10 07:04:40;;;;;;;9.35;2.90;;;;;;;;;;4953918;29;20051;-88
2022/05/10 07:07:07;;;;;;;6.43;2.90;;;;;;;;;;4954128;29;20090;-89
2022/05/10 07:09:34;;;;;;;4.57;2.97;;;;;;;;;;4953825;29;20154;-89
2022/05/10 07:12:01;;;;;;;10.10;2.97;;;;;;;;;;4954190;29;20138;-88
2022/05/10 07:14:29;;;;;;;10.15;3.10;;;;;;;;;;4953558;29;20146;-87
2022/05/10 07:16:56;;;;;;;13.65;3.20;;;;;;;;;;4953766;29;20130;-90
2022/05/10 07:19:23;;;;;;;10.55;3.50;;;;;;;;;;4953886;29;20147;-89
2022/05/10 07:21:50;;;;;;;4.80;3.03;;;;;;;;;;4953464;29;20058;-89
2022/05/10 07:24:19;;;;;;;7.50;2.78;;;;;;;;;;4953860;29;20051;-88
2022/05/10 07:26:47;;;;;;;12.25;3.08;;;;;;;;;;4954279;29;20055;-88
2022/05/10 07:29:14;;;;;;;6.70;2.83;;;;;;;;;;4955044;28;20101;-88
2022/05/10 07:31:42;;;;;;;4.85;2.42;;;;;;;;;;4957458;28;20157;-89
2022/05/10 07:34:10;;;;;;;8.80;2.85;;;;;;;;;;4955707;29;20492;-88
2022/05/10 07:36:38;;;;;;;5.68;2.40;;;;;;;;;;4957519;29;20490;-89
2022/05/10 07:39:11;;;;;;;2.58;2.45;;;;;;;;;;4957602;29;20059;-93
2022/05/10 07:41:39;;;;;;;12.50;3.28;;;;;;;;;;4957234;28;20047;-90
2022/05/10 07:44:06;;;;;;;4.20;2.35;;;;;;;;;;4957403;29;20442;-89
2022/05/10 07:46:33;;;;;;;3.00;2.50;;;;;;;;;;4956944;28;20057;-90
2022/05/10 07:49:01;;;;;;;4.22;2.10;;;;;;;;;;4956763;28;20062;-89
2022/05/10 07:51:28;;;;;;;3.30;2.28;;;;;;;;;;4957144;28;20094;-91
2022/05/10 07:53:55;;;;;;;4.30;2.30;;;;;;;;;;4957389;29;20094;-91
2022/05/10 07:56:24;;;;;;;3.20;2.20;;;;;;;;;;4957247;28;20138;-90
2022/05/10 07:58:53;;;;;;;3.83;2.20;;;;;;;;;;4956520;29;20389;-90
2022/05/10 08:01:21;;;;;;;3.38;2.20;;;;;;;;;;4956623;29;20061;-89
2022/05/10 08:03:48;;;;;;;9.68;2.30;;;;;;;;;;4956827;29;20051;-90
2022/05/10 08:06:18;;;;;;;2.30;2.10;;;;;;;;;;4956851;28;20313;-93
2022/05/10 08:08:45;;;;;;;3.97;2.30;;;;;;;;;;4960128;28;20074;-89
2022/05/10 08:11:12;;;;;;;5.35;2.15;;;;;;;;;;4966802;29;20071;-88
2022/05/10 08:13:40;;;;;;;2.50;2.20;;;;;;;;;;4956981;29;20492;-90
2022/05/10 08:16:09;;;;;;;2.40;2.20;;;;;;;;;;4956994;29;20050;-91
2022/05/10 08:18:37;;;;;;;2.20;2.00;;;;;;;;;;4956661;29;20071;-90
2022/05/10 08:21:04;;;;;;;3.38;1.85;;;;;;;;;;4956602;28;20457;-91
2022/05/10 08:23:32;;;;;;;3.65;2.67;;;;;;;;;;4956434;29;20130;-92
2022/05/10 08:26:00;;;;;;;3.50;2.60;;;;;;;;;;4956172;28;20122;-91
2022/05/10 08:28:29;;;;;;;5.93;2.05;;;;;;;;;;4956278;29;20130;-88
2022/05/10 08:30:57;;;;;;;2.92;2.60;;;;;;;;;;4955912;29;20055;-89
2022/05/10 08:33:31;;;;;;;2.85;2.33;;;;;;;;;;4956754;29;20479;-90
2022/05/10 08:35:59;;;;;;;3.42;2.50;;;;;;;;;;4956327;28;20051;-91
2022/05/10 08:38:29;;;;;;;2.13;2.00;;;;;;;;;;4956031;29;20141;-92
2022/05/10 08:41:03;;;;;;;6.07;2.05;;;;;;;;;;4955231;28;20082;-90
2022/05/10 08:43:36;;;;;;;7.60;2.30;;;;;;;;;;4956071;29;20069;-89
2022/05/10 08:46:04;;;;;;;4.88;3.45;;;;;;;;;;4956376;28;20432;-90
2022/05/10 08:48:32;;;;;;;2.35;2.15;;;;;;;;;;4956110;28;20058;-89
2022/05/10 08:51:00;;;;;;;8.07;2.85;;;;;;;;;;4959007;28;20050;-92
2022/05/10 08:53:27;;;;;;;3.92;2.00;;;;;;;;;;4959234;28;20062;-90
2022/05/10 08:55:57;;;;;;;4.28;2.20;;;;;;;;;;4959022;28;20051;-87
2022/05/10 08:58:33;;;;;;;16.48;2.67;;;;;;;;;;4959657;28;20047;-94
2022/05/10 09:01:26;;;;;;;8.05;2.65;;;;;;;;;;4962242;28;20514;-88
2022/05/10 09:03:57;;;;;;;6.43;3.00;;;;;;;;;;4959302;28;20388;-89
2022/05/10 09:06:34;;;;;;;2.75;2.53;;;;;;;;;;4959024;28;20050;-88
2022/05/10 09:09:10;;;;;;;4.28;2.42;;;;;;;;;;4959191;28;20074;-90
2022/05/10 09:12:07;;;;;;;4.80;2.53;;;;;;;;;;4961869;28;20054;-92
2022/05/10 09:14:39;;;;;;;7.10;2.13;;;;;;;;;;4959302;28;20055;-91
2022/05/10 09:17:07;;;;;;;4.05;2.50;;;;;;;;;;4958996;28;20065;-89
2022/05/10 09:19:38;;;;;;;2.35;1.90;;;;;;;;;;4958696;28;20133;-88
2022/05/10 09:22:31;;;;;;;5.13;2.10;;;;;;;;;;4961303;28;20058;-91
2022/05/10 09:24:58;;;;;;;5.88;2.20;;;;;;;;;;4958835;28;20077;-90
2022/05/10 09:27:31;;;;;;;5.95;2.20;;;;;;;;;;4958791;28;20158;-91
2022/05/10 09:29:59;;;;;;;2.95;1.90;;;;;;;;;;4958577;28;20051;-91
2022/05/10 09:35:20;;;;;;;1.77;1.63;;;;;;;;;;4976019;28;20054;-90
2022/05/10 09:38:03;;;;;;;1.90;1.73;;;;;;;;;;4958524;28;20050;-91
2022/05/10 09:40:35;;;;;;;2.22;1.55;;;;;;;;;;4958500;28;20074;-91
2022/05/10 09:43:11;;;;;;;2.83;2.05;;;;;;;;;;4958367;28;20046;-94
2022/05/10 09:45:39;;;;;;;8.00;2.10;;;;;;;;;;4958030;28;20043;-90
2022/05/10 09:48:09;;;;;;;3.70;2.28;;;;;;;;;;4958362;28;20065;-89
2022/05/10 09:50:39;;;;;;;1.98;1.45;;;;;;;;;;4957900;28;20134;-90
2022/05/10 09:53:08;;;;;;;2.10;1.63;;;;;;;;;;4957536;28;20141;-94
2022/05/10 09:55:36;;;;;;;1.70;1.50;;;;;;;;;;4957916;28;20057;-89
2022/05/10 09:58:20;;;;;;;1.88;1.67;;;;;;;;;;4958138;28;20057;-89
2022/05/10 10:00:52;;;;;;;3.53;1.55;;;;;;;;;;4958036;28;20130;-92
2022/05/10 10:03:26;;;;;;;2.67;2.10;;;;;;;;;;4958219;28;20061;-89
2022/05/10 10:05:56;;;;;;;5.05;2.00;;;;;;;;;;4957944;28;20105;-89
2022/05/10 10:08:41;;;;;;;2.75;1.90;;;;;;;;;;4957626;28;20550;-89
2022/05/10 10:11:34;;;;;;;4.10;2.00;;;;;;;;;;4974862;28;20142;-91
2022/05/10 10:14:04;;;;;;;3.15;1.90;;;;;;;;;;4955205;28;20138;-89
2022/05/10 10:16:34;;;;;;;3.45;1.58;;;;;;;;;;4957702;28;20145;-89
2022/05/10 10:19:01;;;;;;;3.45;1.70;;;;;;;;;;4957760;28;20054;-91
2022/05/10 10:21:32;;;;;;;2.95;1.80;;;;;;;;;;4957729;28;20515;-92
2022/05/10 10:24:00;;;;;;;2.58;1.98;;;;;;;;;;4963429;28;20114;-92
2022/05/10 10:26:37;;;;;;;3.33;2.28;;;;;;;;;;4972355;28;20110;-89
2022/05/10 10:29:13;;;;;;;2.22;2.13;;;;;;;;;;4957596;28;20105;-90
2022/05/10 10:31:47;;;;;;;2.30;1.92;;;;;;;;;;4957784;28;20059;-88
2022/05/10 10:34:19;;;;;;;1.60;1.50;;;;;;;;;;4975289;28;20062;-92
2022/05/10 10:36:51;;;;;;;4.10;1.50;;;;;;;;;;4957866;28;20049;-90
2022/05/10 10:39:30;;;;;;;3.67;1.88;;;;;;;;;;4958122;28;20421;-90
2022/05/10 10:42:03;;;;;;;1.70;1.60;;;;;;;;;;4974985;28;20058;-92
2022/05/10 10:44:31;;;;;;;1.70;1.60;;;;;;;;;;4958005;28;20450;-92
2022/05/10 10:47:08;;;;;;;2.35;1.48;;;;;;;;;;4958132;28;20055;-92
2022/05/10 10:49:39;;;;;;;1.83;1.73;;;;;;;;;;4957753;28;20414;-89
2022/05/10 10:52:07;;;;;;;2.13;1.65;;;;;;;;;;4974647;28;20090;-93
2022/05/10 10:54:35;;;;;;;3.80;1.40;;;;;;;;;;4957562;28;20146;-91
2022/05/10 10:57:21;;;;;;;3.80;1.65;;;;;;;;;;4957673;28;20066;-90
2022/05/10 10:59:50;;;;;;;2.15;1.48;;;;;;;;;;4957791;28;20142;-92
2022/05/10 11:02:26;;;;;;;3.25;1.70;;;;;;;;;;4957590;28;20561;-90
2022/05/10 11:05:05;;;;;;;1.92;1.70;;;;;;;;;;4959492;28;20050;-91
2022/05/10 11:07:43;;;;;;;2.60;1.60;;;;;;;;;;4961368;28;20074;-90
2022/05/10 11:10:14;;;;;;;2.13;1.88;;;;;;;;;;4961161;28;20133;-89
2022/05/10 11:12:57;;;;;;;1.98;1.80;;;;;;;;;;4977656;28;20089;-93
2022/05/10 11:15:42;;;;;;;3.67;1.80;;;;;;;;;;4977755;28;20054;-89
2022/05/10 11:18:19;;;;;;;1.95;1.85;;;;;;;;;;4961008;28;20050;-88
2022/05/10 11:20:52;;;;;;;2.38;1.88;;;;;;;;;;4960893;28;20137;-90
2022/05/10 11:23:34;;;;;;;7.25;1.98;;;;;;;;;;4960778;28;20138;-89
2022/05/10 11:26:31;;;;;;;2.28;2.08;;;;;;;;;;4960931;28;20125;-88
2022/05/10 11:29:17;;;;;;;2.38;1.83;;;;;;;;;;4957435;28;20137;-91
2022/05/10 11:31:49;;;;;;;3.75;1.90;;;;;;;;;;4960656;28;20134;-90
2022/05/10 11:34:52;;;;;;;2.58;1.75;;;;;;;;;;4960842;28;20138;-91
2022/05/10 11:37:26;;;;;;;1.77;1.67;;;;;;;;;;4880850;29;20093;-94
2022/05/10 11:39:56;;;;;;;1.92;1.83;;;;;;;;;;4947396;28;20059;-95
2022/05/10 11:42:43;;;;;;;2.35;2.08;;;;;;;;;;4960420;28;20056;-90
2022/05/10 11:45:10;;;;;;;7.47;2.40;;;;;;;;;;4960344;28;20047;-90
2022/05/10 11:47:58;;;;;;;3.30;2.20;;;;;;;;;;4977354;28;20055;-89
2022/05/10 11:51:38;;;;;;;3.35;2.00;;;;;;;;;;4959981;28;20065;-91
2022/05/10 11:53:31;;;;;;;2.15;2.05;;;;;;;;;;4977118;28;20047;-91
2022/05/10 11:56:00;;;;;;;2.67;1.98;;;;;;;;;;4960153;28;20046;-91
2022/05/10 11:58:28;;;;;;;2.63;2.03;;;;;;;;;;4977183;28;20078;-89
2022/05/10 12:00:56;;;;;;;7.55;2.65;;;;;;;;;;4960328;28;20050;-88
2022/05/10 12:03:35;;;;;;;12.05;2.63;;;;;;;;;;4960117;28;20046;-94
2022/05/10 12:06:35;;;;;;;6.13;2.03;;;;;;;;;;4960121;28;20050;-92
2022/05/10 12:09:05;;;;;;;2.60;1.95;;;;;;;;;;4918900;28;20082;-90
2022/05/10 12:11:33;;;;;;;7.38;1.92;;;;;;;;;;4960484;28;20058;-88
2022/05/10 12:22:46;;;;;;;2.25;2.05;;;;;;;;;;4976519;28;20061;-89
2022/05/10 12:25:32;;;;;;;3.30;2.50;;;;;;;;;;4959777;28;20050;-92
2022/05/10 12:28:01;;;;;;;7.80;2.03;;;;;;;;;;4959547;28;20105;-88
2022/05/10 12:30:30;;;;;;;4.10;1.90;;;;;;;;;;4959699;28;20054;-89
2022/05/10 12:32:58;;;;;;;2.38;2.10;;;;;;;;;;4959775;28;20043;-89
2022/05/10 12:35:32;;;;;;;7.97;2.35;;;;;;;;;;4959115;28;20055;-89
2022/05/10 12:38:00;;;;;;;8.05;2.28;;;;;;;;;;4976572;28;20062;-87
2022/05/10 12:40:46;;;;;;;3.80;2.05;;;;;;;;;;4964025;28;20541;-90
2022/05/10 12:43:32;;;;;;;7.47;2.67;;;;;;;;;;4959416;28;20047;-91
2022/05/10 12:46:05;;;;;;;4.20;2.10;;;;;;;;;;4959481;28;20065;-88
2022/05/10 12:48:33;;;;;;;;;;;;;;;;;;4959711;28;20043;-93
2022/05/10 12:51:12;;;;;;;4.70;2.05;;;;;;;;;;4976140;28;20024;-88
2022/05/10 12:53:51;;;;;;;5.50;2.60;;;;;;;;;;4959307;28;20054;-90
2022/05/10 12:56:18;;;;;;;43.15;4.35;;;;;;;;;;4959709;28;20462;-90
2022/05/10 12:58:49;;;;;;;5.32;2.08;;;;;;;;;;4959253;28;20097;-89
2022/05/10 13:01:17;;;;;;;5.72;2.15;;;;;;;;;;4958350;28;20058;-93
2022/05/10 13:03:52;;;;;;;4.03;2.33;;;;;;;;;;4975576;28;20074;-87
2022/05/10 13:06:33;;;;;;;5.47;1.80;;;;;;;;;;4958832;28;20162;-89
2022/05/10 13:09:39;;;;;;;3.72;1.95;;;;;;;;;;4958852;28;20059;-95
2022/05/10 13:12:12;;;;;;;5.75;2.20;;;;;;;;;;4879816;29;20053;-90
2022/05/10 13:14:43;;;;;;;3.78;2.10;;;;;;;;;;4863412;29;20136;-96
2022/05/10 13:17:19;;;;;;;4.53;2.40;;;;;;;;;;4918124;28;20114;-90
2022/05/10 13:19:47;;;;;;;2.80;2.30;;;;;;;;;;4958613;28;20089;-90
2022/05/10 13:22:18;;;;;;;3.20;2.60;;;;;;;;;;4958860;28;20487;-88
2022/05/10 13:24:47;;;;;;;6.13;2.60;;;;;;;;;;4958614;28;20061;-92
2022/05/10 13:27:26;;;;;;;2.70;2.40;;;;;;;;;;4958234;28;20567;-93
2022/05/10 13:29:54;;;;;;;3.10;2.20;;;;;;;;;;4958705;28;20051;-89
2022/05/10 13:32:27;;;;;;;2.63;2.40;;;;;;;;;;4958630;28;20142;-91
2022/05/10 13:34:55;;;;;;;3.75;2.22;;;;;;;;;;4958604;28;20061;-91
2022/05/10 13:37:26;;;;;;;3.55;2.28;;;;;;;;;;4958548;28;20047;-92
2022/05/10 13:39:53;;;;;;;2.75;2.58;;;;;;;;;;4958463;28;20046;-89
2022/05/10 13:42:21;;;;;;;5.88;2.88;;;;;;;;;;4958701;28;20082;-88
2022/05/10 13:44:48;;;;;;;5.32;2.60;;;;;;;;;;4957998;28;20070;-90
2022/05/10 13:47:34;;;;;;;4.97;2.45;;;;;;;;;;4957911;28;20192;-89
2022/05/10 13:50:01;;;;;;;3.78;2.60;;;;;;;;;;4957473;28;20089;-89
2022/05/10 13:52:29;;;;;;;2.60;2.40;;;;;;;;;;4957675;28;20047;-91
2022/05/10 13:54:58;;;;;;;2.60;2.40;;;;;;;;;;4957968;28;20081;-91
2022/05/10 13:57:28;;;;;;;3.42;2.80;;;;;;;;;;4958084;28;20511;-90
2022/05/10 14:00:00;;;;;;;3.90;2.80;;;;;;;;;;4958251;28;20058;-89
2022/05/10 14:02:30;;;;;;;6.40;2.58;;;;;;;;;;4958131;28;20055;-88
2022/05/10 14:04:57;;;;;;;2.67;2.38;;;;;;;;;;4958044;28;20403;-91
2022/05/10 14:07:30;;;;;;;2.65;2.20;;;;;;;;;;4958340;28;20066;-92
2022/05/10 14:10:00;;;;;;;2.30;2.20;;;;;;;;;;4957999;28;20515;-93
2022/05/10 14:12:32;;;;;;;3.95;2.33;;;;;;;;;;4958439;28;20055;-91
2022/05/10 14:15:17;;;;;;;6.70;2.05;;;;;;;;;;4958014;28;20514;-90
2022/05/10 14:17:48;;;;;;;4.07;2.47;;;;;;;;;;4958200;28;20070;-91
2022/05/10 14:20:35;;;;;;;7.97;2.15;;;;;;;;;;4957844;28;20491;-90
2022/05/10 14:23:04;;;;;;;4.03;2.47;;;;;;;;;;4958029;28;20066;-90
2022/05/10 14:25:34;;;;;;;5.07;2.80;;;;;;;;;;4957896;28;20051;-91
2022/05/10 14:28:16;;;;;;;5.18;2.60;;;;;;;;;;4958136;28;20070;-92
2022/05/10 14:30:48;;;;;;;18.48;3.28;;;;;;;;;;4958144;28;20077;-91
2022/05/10 14:33:15;;;;;;;2.58;2.47;;;;;;;;;;4958105;28;20059;-88
2022/05/10 14:35:44;;;;;;;6.30;2.72;;;;;;;;;;4957930;28;20078;-89
2022/05/10 14:38:14;;;;;;;4.35;2.40;;;;;;;;;;4957246;28;20463;-90
2022/05/10 14:40:42;;;;;;;3.15;2.20;;;;;;;;;;4961065;28;20403;-91
2022/05/10 14:43:11;;;;;;;2.88;2.03;;;;;;;;;;4961634;28;20078;-90
2022/05/10 14:45:43;;;;;;;6.75;2.67;;;;;;;;;;4961858;28;20066;-89
2022/05/10 14:48:20;;;;;;;1.95;1.83;;;;;;;;;;4962899;28;20482;-90
2022/05/10 14:50:53;;;;;;;6.45;1.98;;;;;;;;;;4961504;29;20070;-92
2022/05/10 14:53:22;;;;;;;2.20;2.00;;;;;;;;;;4970940;28;20110;-90
2022/05/10 14:55:51;;;;;;;8.45;3.10;;;;;;;;;;4958203;28;20146;-91
2022/05/10 14:58:24;;;;;;;7.82;2.05;;;;;;;;;;4958241;29;20054;-92
2022/05/10 15:01:00;;;;;;;3.53;2.08;;;;;;;;;;4957958;29;20059;-93
2022/05/10 15:03:27;;;;;;;5.72;2.47;;;;;;;;;;4957719;29;20146;-90
2022/05/10 15:05:55;;;;;;;2.83;2.25;;;;;;;;;;4958065;29;20142;-92
2022/05/10 15:08:23;;;;;;;2.45;2.20;;;;;;;;;;4958175;29;20085;-92
2022/05/10 15:10:51;;;;;;;5.22;2.20;;;;;;;;;;4957886;29;20081;-94
2022/05/10 15:13:18;;;;;;;4.63;2.20;;;;;;;;;;4958481;29;20141;-90
2022/05/10 15:15:53;;;;;;;2.60;2.40;;;;;;;;;;4959117;28;20075;-92